Paige, Texas
Current Conditions -  °F | °C
As of 8:55 PM on Saturday 25 Oct 2014 (Local Time) from KGYB Reporting Station
Clear Clear  
Wind Chill: 68°   Ceiling: Unl
Heat Index: 68°   Visibility: 10mi
Dew Point: 60°   Wind: 0mph
Humidity: 75%   Direction: NA
Pressure: 30.13"   Gusts: NA
Location:  30.21°N, 97.12°W
Report Text: KGYB 260155Z AUTO 00000KT 10SM CLR 20/16 A3013 RMK AO2 T02000155
Loading
Personal Weather Stations






























Interactive Weather Map
Tropical Storm Tracking
New forecast layout! Learn more

10-Day Weather Forecast

Advertisements
Track Severe Weather on mobile